createdAt,value
2022-10-13T00:01:12.490Z,6.60
2022-10-13T00:03:41.882Z,6.60
2022-10-13T00:06:12.061Z,6.50
2022-10-13T00:08:40.796Z,6.40
2022-10-13T00:11:13.618Z,6.40
2022-10-13T00:13:42.437Z,7.10
2022-10-13T00:16:14.264Z,6.30
2022-10-13T00:18:42.235Z,6.30
2022-10-13T00:21:11.953Z,6.30
2022-10-13T00:23:40.744Z,6.40
2022-10-13T00:26:10.536Z,5.90
2022-10-13T00:28:39.117Z,5.80
2022-10-13T00:31:18.089Z,5.80
2022-10-13T00:33:46.059Z,5.90
2022-10-13T00:36:14.046Z,6.10
2022-10-13T00:38:42.283Z,5.80
2022-10-13T00:41:10.840Z,5.90
2022-10-13T00:43:52.888Z,5.80
2022-10-13T00:46:22.217Z,5.80
2022-10-13T00:48:51.863Z,5.70
2022-10-13T00:51:23.623Z,6.40
2022-10-13T00:53:52.494Z,5.80
2022-10-13T00:56:22.350Z,5.40
2022-10-13T00:58:50.871Z,5.50
2022-10-13T01:01:19.031Z,5.30
2022-10-13T01:03:48.291Z,5.50
2022-10-13T01:06:23.273Z,5.60
2022-10-13T01:08:51.997Z,5.50
2022-10-13T01:11:49.291Z,5.50
2022-10-13T01:14:24.570Z,5.50
2022-10-13T01:17:02.180Z,5.40
2022-10-13T01:20:01.013Z,5.20
2022-10-13T01:22:46.771Z,5.40
2022-10-13T01:25:30.121Z,4.90
2022-10-13T01:28:16.079Z,4.90
2022-10-13T01:30:50.238Z,4.90
2022-10-13T01:33:27.937Z,5.00
2022-10-13T01:36:03.761Z,5.40
2022-10-13T01:38:38.252Z,5.10
2022-10-13T01:41:12.853Z,5.20
2022-10-13T01:43:45.483Z,5.20
2022-10-13T01:46:18.554Z,5.40
2022-10-13T01:48:46.894Z,5.80
2022-10-13T01:51:17.684Z,5.00
2022-10-13T01:53:47.153Z,5.00
2022-10-13T01:56:15.412Z,5.00
2022-10-13T01:58:43.324Z,5.00
2022-10-13T02:01:30.611Z,5.00
2022-10-13T02:04:11.018Z,5.20
2022-10-13T02:06:44.263Z,4.80
2022-10-13T02:09:17.160Z,4.70
2022-10-13T02:11:50.486Z,4.60
2022-10-13T02:14:23.175Z,4.60
2022-10-13T02:16:54.419Z,5.00
2022-10-13T02:19:23.062Z,4.20
2022-10-13T02:29:17.821Z,4.50
2022-10-13T02:31:46.673Z,4.50
2022-10-13T02:34:16.197Z,4.60
2022-10-13T02:39:12.861Z,4.50
2022-10-13T02:41:40.782Z,4.70
2022-10-13T02:44:09.018Z,4.60
2022-10-13T02:46:36.990Z,4.80
2022-10-13T02:49:04.939Z,4.70
2022-10-13T02:51:38.966Z,4.50
2022-10-13T03:01:33.125Z,4.50
2022-10-13T03:04:01.026Z,5.10
2022-10-13T03:06:28.904Z,4.50
2022-10-13T03:08:58.147Z,4.50
2022-10-13T03:11:26.124Z,4.40
2022-10-13T03:13:54.249Z,4.40
2022-10-13T03:16:22.187Z,4.50
2022-10-13T03:18:50.085Z,4.50
2022-10-13T03:21:18.046Z,4.30
2022-10-13T03:23:45.948Z,4.40
2022-10-13T03:26:15.610Z,4.30
2022-10-13T03:28:43.656Z,4.30
2022-10-13T03:31:13.712Z,4.30
2022-10-13T03:33:42.065Z,4.50
2022-10-13T03:36:11.591Z,4.00
2022-10-13T03:38:39.506Z,4.10
2022-10-13T03:41:08.469Z,3.90
2022-10-13T03:43:38.144Z,3.90
2022-10-13T03:46:07.873Z,3.90
2022-10-13T03:48:37.009Z,3.60
2022-10-13T03:51:07.385Z,3.70
2022-10-13T03:53:36.012Z,3.70
2022-10-13T03:56:05.098Z,3.90
2022-10-13T03:58:33.367Z,3.80
2022-10-13T04:01:06.956Z,3.70
2022-10-13T04:03:35.604Z,3.80
2022-10-13T04:06:05.036Z,3.70
2022-10-13T04:08:34.763Z,4.30
2022-10-13T04:11:04.114Z,3.10
2022-10-13T04:16:05.131Z,3.20
2022-10-13T04:23:29.667Z,3.10
2022-10-13T04:25:57.775Z,3.90
2022-10-13T04:28:25.862Z,3.50
2022-10-13T04:30:54.075Z,3.30
2022-10-13T04:33:23.330Z,3.20
2022-10-13T04:35:51.286Z,3.20
2022-10-13T04:38:19.178Z,3.20
2022-10-13T04:40:47.085Z,3.20
2022-10-13T04:43:15.886Z,3.10
2022-10-13T04:45:43.890Z,3.10
2022-10-13T04:48:11.973Z,3.00
2022-10-13T04:50:41.331Z,3.00
2022-10-13T04:53:09.258Z,2.80
2022-10-13T04:55:37.601Z,2.70
2022-10-13T05:00:33.872Z,3.00
2022-10-13T05:03:01.861Z,2.80
2022-10-13T05:05:29.727Z,2.80
2022-10-13T05:07:58.973Z,2.90
2022-10-13T05:13:00.472Z,2.70
2022-10-13T05:15:28.431Z,2.70
2022-10-13T05:17:56.563Z,2.90
2022-10-13T05:20:24.451Z,2.90
2022-10-13T05:22:52.419Z,3.10
2022-10-13T05:25:22.187Z,3.20
2022-10-13T05:27:50.064Z,3.20
2022-10-13T05:30:18.123Z,3.20
2022-10-13T05:32:48.289Z,3.30
2022-10-13T05:35:18.364Z,3.50
2022-10-13T05:37:46.242Z,3.30
2022-10-13T05:42:43.842Z,3.50
2022-10-13T05:45:13.427Z,3.40
2022-10-13T05:55:11.018Z,3.70
2022-10-13T05:57:42.096Z,3.30
2022-10-13T06:00:14.467Z,3.60
2022-10-13T06:05:15.057Z,3.80
2022-10-13T06:17:40.008Z,4.20
2022-10-13T06:20:09.776Z,4.10
2022-10-13T06:22:38.477Z,4.10
2022-10-13T06:25:08.310Z,4.50
2022-10-13T06:27:36.202Z,4.30
2022-10-13T06:30:04.365Z,4.30
2022-10-13T06:32:32.276Z,4.40
2022-10-13T06:35:01.531Z,4.50
2022-10-13T06:37:29.482Z,4.60
2022-10-13T08:29:24.852Z,10.90
2022-10-13T08:31:53.675Z,10.90
2022-10-13T08:34:23.536Z,11.00
2022-10-13T10:35:50.394Z,15.50
2022-10-13T10:38:30.134Z,15.40
2022-10-13T10:41:06.102Z,15.30
2022-10-13T10:43:44.329Z,15.60
2022-10-13T10:46:17.019Z,15.80
2022-10-13T10:48:46.902Z,16.00
2022-10-13T10:51:16.462Z,16.00
2022-10-13T10:53:54.934Z,16.00
2022-10-13T10:56:30.191Z,16.10
2022-10-13T10:59:23.778Z,16.20
2022-10-13T11:02:08.087Z,16.70
2022-10-13T11:04:41.557Z,16.40
2022-10-13T11:07:16.012Z,16.30
2022-10-13T11:10:17.479Z,16.50
2022-10-13T11:13:27.199Z,16.70
2022-10-13T11:15:55.703Z,17.00
2022-10-13T11:18:56.431Z,16.60
2022-10-13T11:21:24.311Z,16.50
2022-10-13T11:23:54.833Z,16.90
2022-10-13T11:26:32.476Z,16.70
2022-10-13T11:29:01.097Z,16.80
2022-10-13T11:31:35.270Z,16.90
2022-10-13T11:36:47.921Z,16.80
2022-10-13T11:40:00.399Z,16.50
2022-10-13T11:42:59.247Z,16.40
2022-10-13T11:46:04.437Z,16.70
2022-10-13T11:49:15.819Z,16.90
2022-10-13T11:52:04.294Z,16.80
2022-10-13T11:54:37.673Z,16.80
2022-10-13T11:57:19.837Z,16.80
2022-10-13T11:59:51.546Z,16.80
2022-10-13T12:02:19.784Z,16.50
2022-10-13T12:05:02.078Z,16.70
2022-10-13T12:07:35.782Z,16.80
2022-10-13T12:10:09.812Z,16.80
2022-10-13T12:12:37.869Z,16.50
2022-10-13T12:15:32.136Z,16.00
2022-10-13T12:18:00.278Z,15.90
2022-10-13T12:20:30.147Z,16.10
2022-10-13T12:22:58.575Z,15.80
2022-10-13T12:25:30.998Z,16.30
2022-10-13T12:28:01.004Z,16.10
2022-10-13T12:30:31.752Z,16.00
2022-10-13T12:33:01.615Z,16.20
2022-10-13T12:35:31.656Z,16.00
2022-10-13T12:38:03.573Z,16.00
2022-10-13T12:40:33.097Z,16.20
2022-10-13T12:43:01.384Z,16.30
2022-10-13T12:45:32.972Z,16.30
2022-10-13T12:48:00.931Z,16.60
2022-10-13T12:50:39.034Z,16.40
2022-10-13T12:53:14.614Z,16.60
2022-10-13T12:55:55.219Z,16.50
2022-10-13T12:58:26.315Z,16.80
2022-10-13T13:01:02.063Z,17.40
2022-10-13T13:03:31.264Z,17.50
2022-10-13T13:06:11.150Z,17.40
2022-10-13T13:08:39.238Z,17.60
2022-10-13T13:11:20.719Z,18.80
2022-10-13T13:13:48.680Z,18.40
2022-10-13T13:16:18.237Z,18.00
2022-10-13T13:18:46.926Z,18.50
2022-10-13T13:21:16.741Z,18.40
2022-10-13T13:23:51.048Z,18.40
2022-10-13T13:26:24.536Z,18.40
2022-10-13T13:28:54.106Z,18.20
2022-10-13T13:31:24.387Z,18.80
2022-10-13T13:33:52.598Z,18.60
2022-10-13T13:36:22.526Z,18.70
2022-10-13T13:38:51.220Z,18.60
2022-10-13T13:41:19.240Z,19.20
2022-10-13T13:43:48.773Z,19.20
2022-10-13T13:46:20.451Z,19.30
2022-10-13T13:48:48.618Z,19.60
2022-10-13T13:51:16.836Z,19.90
2022-10-13T13:53:45.035Z,20.60
2022-10-13T13:56:15.067Z,20.10
2022-10-13T13:58:43.183Z,21.10
2022-10-13T14:01:14.031Z,21.40
2022-10-13T14:03:41.939Z,20.50
2022-10-13T14:06:10.081Z,20.50
2022-10-13T14:08:42.312Z,20.50
2022-10-13T14:11:11.602Z,19.90
2022-10-13T14:13:39.604Z,19.80
2022-10-13T14:16:08.058Z,20.00
2022-10-13T14:18:37.313Z,20.30
2022-10-13T14:21:07.243Z,20.10
2022-10-13T14:23:36.082Z,19.90
2022-10-13T14:26:07.983Z,19.80
2022-10-13T14:28:35.954Z,19.80
2022-10-13T14:31:07.739Z,20.00
2022-10-13T14:33:38.103Z,19.60
2022-10-13T14:36:08.195Z,19.20
2022-10-13T14:38:36.377Z,18.60
2022-10-13T14:41:07.650Z,18.70
2022-10-13T14:43:35.567Z,18.00
2022-10-13T14:46:05.011Z,17.50
2022-10-13T14:48:33.005Z,17.70
2022-10-13T14:51:05.687Z,18.00
2022-10-13T14:53:35.112Z,17.60
2022-10-13T14:56:03.344Z,17.40
2022-10-13T14:58:31.285Z,17.50
2022-10-13T15:00:59.192Z,17.50
2022-10-13T15:03:27.883Z,17.30
2022-10-13T15:05:55.820Z,17.00
2022-10-13T15:08:25.126Z,17.00
2022-10-13T15:10:59.854Z,16.90
2022-10-13T15:13:27.934Z,16.70
2022-10-13T15:15:55.960Z,16.40
2022-10-13T15:18:28.381Z,16.50
2022-10-13T15:20:57.799Z,16.20
2022-10-13T15:23:27.576Z,16.20
2022-10-13T15:25:57.097Z,16.10
2022-10-13T15:28:26.518Z,16.00
2022-10-13T15:30:54.497Z,15.80
2022-10-13T15:33:23.027Z,15.70
2022-10-13T15:35:51.679Z,15.30
2022-10-13T15:38:21.084Z,14.80
2022-10-13T15:40:50.799Z,14.50
2022-10-13T15:43:19.355Z,14.40
2022-10-13T15:45:55.059Z,14.10
2022-10-13T15:48:23.184Z,13.90
2022-10-13T15:50:51.087Z,13.70
2022-10-13T15:53:19.773Z,13.60
2022-10-13T15:55:48.045Z,13.30
2022-10-13T15:58:17.514Z,13.20
2022-10-13T16:00:45.884Z,13.10
2022-10-13T16:03:16.881Z,12.90
2022-10-13T16:05:45.746Z,12.90
2022-10-13T16:08:14.023Z,12.80
2022-10-13T16:10:43.281Z,12.60
2022-10-13T16:13:14.984Z,12.60
2022-10-13T16:15:44.299Z,12.50
2022-10-13T16:18:12.365Z,12.40
2022-10-13T16:20:45.251Z,12.30
2022-10-13T16:23:13.161Z,12.20
2022-10-13T16:25:41.169Z,12.10
2022-10-13T16:28:09.071Z,12.10
2022-10-13T16:30:37.445Z,12.00
2022-10-13T16:33:06.806Z,11.90
2022-10-13T16:35:35.283Z,11.90
2022-10-13T16:38:03.207Z,11.80
2022-10-13T16:40:31.110Z,11.70
2022-10-13T16:42:58.985Z,11.60
2022-10-13T16:45:47.875Z,11.60
2022-10-13T16:48:16.241Z,11.50
2022-10-13T16:50:44.203Z,11.50
2022-10-13T16:53:12.117Z,11.40
2022-10-13T16:55:40.618Z,11.40
2022-10-13T16:58:08.527Z,11.30
2022-10-13T17:00:36.927Z,11.20
2022-10-13T17:03:05.092Z,11.20
2022-10-13T17:05:34.875Z,11.10
2022-10-13T17:08:02.802Z,11.00
2022-10-13T17:10:30.705Z,10.90
2022-10-13T17:12:58.594Z,10.90
2022-10-13T17:15:26.684Z,10.80
2022-10-13T17:17:54.590Z,10.80
2022-10-13T17:20:22.580Z,10.60
2022-10-13T17:22:51.806Z,10.50
2022-10-13T17:25:19.746Z,10.50
2022-10-13T17:27:47.676Z,10.50
2022-10-13T17:30:15.673Z,10.50
2022-10-13T17:32:43.703Z,10.40
2022-10-13T17:35:17.886Z,10.30
2022-10-13T17:37:45.826Z,10.30
2022-10-13T17:40:15.167Z,10.30
2022-10-13T17:42:43.206Z,10.20
2022-10-13T17:45:11.564Z,10.20
2022-10-13T17:47:42.366Z,10.10
2022-10-13T17:50:10.859Z,10.10
2022-10-13T17:52:38.777Z,10.00
2022-10-13T17:55:07.343Z,10.00
2022-10-13T17:57:36.607Z,9.90
2022-10-13T18:00:05.627Z,9.90
2022-10-13T18:02:33.531Z,9.80
2022-10-13T18:05:01.422Z,9.80
2022-10-13T18:07:29.284Z,9.80
2022-10-13T18:09:57.159Z,9.80
2022-10-13T18:12:25.075Z,9.60
2022-10-13T18:14:54.335Z,9.60
2022-10-13T18:17:22.644Z,9.50
2022-10-13T18:19:51.044Z,9.50
2022-10-13T18:22:19.040Z,9.40
2022-10-13T18:24:47.728Z,9.40
2022-10-13T18:27:15.677Z,9.80
2022-10-13T18:29:43.800Z,9.30
2022-10-13T18:32:13.068Z,9.30
2022-10-13T18:34:40.989Z,9.20
2022-10-13T18:37:08.878Z,9.20
2022-10-13T18:39:36.776Z,9.20
2022-10-13T18:42:04.788Z,9.10
2022-10-13T18:44:32.681Z,9.00
2022-10-13T18:47:00.668Z,9.00
2022-10-13T18:49:31.798Z,8.90
2022-10-13T18:52:00.929Z,8.90
2022-10-13T18:54:30.033Z,8.90
2022-10-13T18:56:58.610Z,8.80
2022-10-13T18:59:26.601Z,8.80
2022-10-13T19:01:54.503Z,8.80
2022-10-13T19:04:22.587Z,8.70
2022-10-13T19:06:51.849Z,8.70
2022-10-13T19:09:21.605Z,8.70
2022-10-13T19:11:49.532Z,8.60
2022-10-13T19:14:17.634Z,8.60
2022-10-13T19:16:45.632Z,8.60
2022-10-13T19:19:13.673Z,8.60
2022-10-13T19:21:41.758Z,8.60
2022-10-13T19:24:11.690Z,8.60
2022-10-13T19:26:39.762Z,8.50
2022-10-13T19:29:10.000Z,8.50
2022-10-13T19:31:39.167Z,8.40
2022-10-13T19:34:07.082Z,8.40
2022-10-13T19:36:37.495Z,8.40
2022-10-13T19:39:11.836Z,8.30
2022-10-13T19:41:41.728Z,8.30
2022-10-13T19:44:09.634Z,8.30
2022-10-13T19:46:37.692Z,8.20
2022-10-13T19:49:06.084Z,8.20
2022-10-13T19:51:34.499Z,8.20
2022-10-13T19:54:02.469Z,8.20
2022-10-13T19:56:32.989Z,8.10
2022-10-13T19:59:04.358Z,8.10
2022-10-13T20:01:32.378Z,7.80
2022-10-13T20:04:00.311Z,7.60
2022-10-13T20:06:28.255Z,7.70
2022-10-13T20:08:56.186Z,7.60
2022-10-13T20:11:24.539Z,7.40
2022-10-13T20:13:53.685Z,7.40
2022-10-13T20:16:25.054Z,7.30
2022-10-13T20:18:53.913Z,7.20
2022-10-13T20:21:22.361Z,7.70
2022-10-13T20:23:50.923Z,7.40
2022-10-13T20:26:20.120Z,7.40
2022-10-13T20:28:49.148Z,7.40
2022-10-13T20:31:19.352Z,7.30
2022-10-13T20:33:49.595Z,7.30
2022-10-13T20:36:19.055Z,7.30
2022-10-13T20:38:49.039Z,7.40
2022-10-13T20:41:19.735Z,7.30
2022-10-13T20:43:48.717Z,7.20
2022-10-13T20:46:19.422Z,7.10
2022-10-13T20:51:37.765Z,7.00
2022-10-13T20:54:06.174Z,7.00
2022-10-13T20:56:34.125Z,6.90
2022-10-13T20:59:04.054Z,6.70
2022-10-13T21:01:33.813Z,6.70
2022-10-13T21:04:03.110Z,6.70
2022-10-13T21:06:31.080Z,6.60
2022-10-13T21:08:58.963Z,6.60
2022-10-13T21:11:26.913Z,6.50
2022-10-13T21:13:55.131Z,6.40
2022-10-13T21:16:27.135Z,6.50
2022-10-13T21:18:56.580Z,6.40
2022-10-13T21:21:29.677Z,6.40
2022-10-13T21:23:59.242Z,6.50
2022-10-13T21:26:29.326Z,7.40
2022-10-13T21:28:57.662Z,6.90
2022-10-13T21:31:26.488Z,6.80
2022-10-13T21:33:54.674Z,6.80
2022-10-13T21:36:26.361Z,6.60
2022-10-13T21:38:55.949Z,6.60
2022-10-13T21:41:24.373Z,6.50
2022-10-13T21:43:52.778Z,6.40
2022-10-13T21:46:23.247Z,6.30
2022-10-13T21:48:53.344Z,6.30
2022-10-13T21:51:22.746Z,6.10
2022-10-13T21:53:52.980Z,6.00
2022-10-13T21:56:21.813Z,5.90
2022-10-13T21:58:49.939Z,5.80
2022-10-13T22:01:18.416Z,5.80
2022-10-13T22:03:47.648Z,6.10
2022-10-13T22:06:19.406Z,6.00
2022-10-13T22:08:49.236Z,5.80
2022-10-13T22:11:19.315Z,5.90
2022-10-13T22:13:47.586Z,5.90
2022-10-13T22:16:17.968Z,5.80
2022-10-13T22:18:46.549Z,6.00
2022-10-13T22:21:17.416Z,6.10
2022-10-13T22:23:45.618Z,6.00
2022-10-13T22:26:14.006Z,6.00
2022-10-13T22:28:44.262Z,5.90
2022-10-13T22:31:14.012Z,5.80
2022-10-13T22:33:43.512Z,5.90
2022-10-13T22:36:14.396Z,5.70
2022-10-13T22:38:42.347Z,6.00
2022-10-13T22:41:10.802Z,5.70
2022-10-13T22:43:38.705Z,5.80
2022-10-13T22:46:08.037Z,5.80
2022-10-13T22:48:40.406Z,5.90
2022-10-13T22:51:09.319Z,5.80
2022-10-13T22:53:37.378Z,5.90
2022-10-13T22:56:07.427Z,5.80
2022-10-13T22:58:35.597Z,5.80
2022-10-13T23:01:09.672Z,5.80
2022-10-13T23:03:38.113Z,5.80
2022-10-13T23:06:07.800Z,5.80
2022-10-13T23:08:36.376Z,5.80
2022-10-13T23:11:04.259Z,5.80
2022-10-13T23:13:32.249Z,5.80
2022-10-13T23:16:02.922Z,6.00
2022-10-13T23:18:32.158Z,5.80
2022-10-13T23:21:00.133Z,6.10
2022-10-13T23:23:28.031Z,5.80
2022-10-13T23:25:55.917Z,5.70
2022-10-13T23:28:23.860Z,5.80
2022-10-13T23:30:51.797Z,5.60
2022-10-13T23:33:19.698Z,5.70
2022-10-13T23:35:55.918Z,5.70
2022-10-13T23:38:24.322Z,5.60
2022-10-13T23:40:52.391Z,5.60
2022-10-13T23:43:20.760Z,5.60
2022-10-13T23:45:48.786Z,5.60
2022-10-13T23:48:17.080Z,5.60
2022-10-13T23:50:44.959Z,5.50
2022-10-13T23:53:14.197Z,5.50
2022-10-13T23:55:42.122Z,5.50
2022-10-13T23:58:10.099Z,5.60
